Bedford, IN

2:34 AM EDT on October 31, 2014 (GMT -0400)
Edgewood Addition | Change Station
CLOSE
Current Station
Personal Weather Station
Location: Bedford, IN
Elevation: 666 ft
Nearby Weather Stations
Active Advisory: Freeze Warning

Elev 666 ft 38.86 °N, 86.50 °W | Updated 4 seconds ago

Overcast
Overcast
45.0 °F
Feels Like 45 °F
N
0.0
Wind Variable Wind from NW
Gusts 3.0 mph

Today
High -- | Low -- °F
--% Chance of Precip.
Yesterday
High -- | Low -- °F
Precip. -- in
8:11 AM 6:46 PM
First Quarter, 52% visible
Pressure 30.04 in
Visibility 10.0 miles
Clouds Overcast 4600 ft
Windchill 45 °F
Dew Point 45 °F
Humidity 100%
Rainfall 0.04 in
Snow Depth Not available.
UV 0 out of 12
Pollen .20 out of 12
Air Quality Not available.
Flu Activity Not available.
METAR KBMG 310553Z AUTO 00000KT 10SM OVC046 08/06 A3004 RMK AO2 RAE29 SLP172 P0001 60001 T00780061 10100 20078 58009

More Conditions Fewer Conditions

Pressure 30.04 in
Visibility 10.0 miles
Clouds Overcast 4600 ft
Windchill 45 °F
Dew Point 45 °F
Humidity 100%
Rainfall 0.04 in
Snow Depth Not available.
UV 0 out of 12
Pollen .20 out of 12
Air Quality Not available.
Flu Activity Not available.
METAR KBMG 310553Z AUTO 00000KT 10SM OVC046 08/06 A3004 RMK AO2 RAE29 SLP172 P0001 60001 T00780061 10100 20078 58009

More Conditions Fewer Conditions

10-Day Weather Forecast

Almanac

Astronomy

Oct. 31, 2014 Rise Set
Actual Time
Civil Twilight
Nautical Twilight
Astronomical Twilight
Moon
Length of Visible Light
Length of Day
Tomorrow will be .
, % of the Moon is Illuminated

Today's Extremes

State Highs State Lows

Community

WunderPhotos

Upload Photos

1,766,571 photos uploaded!

WunderBlogs® & News

Nearby

Air Quality

  Air Quality AQ Index Pollutant
Not available.

Snow Depth

Station Depth Elevation

Earthquake Activity

City Distance Mag. Time & Date
Minimum magnitude displayed is 2.5.

Coastal Water Temperatures

Place Temperature

Nearby Weather Stations